Terminal Aerodrome Forecast
Issued by NWS Atlanta, GA

Home | Current Version | Previous Version | Text Only | Print | Product List | Glossary On
Versions: 1 2 3 4 5 6 7 8 9 10 11 12 13 14 15 16 17 18 19 20 21 22 23 24 25 26 27 28 29 30 31 32 33 34 35 36 37
508
FTUS42 KFFC 280532
TAFAHN
TAF
KAHN 280532Z 2806/2906 22005KT 3SM BR SCT006
      TEMPO 2806/2808 5SM BR BKN006
     FM280800 22004KT 5SM BR BKN004
     FM281500 17003KT 6SM BR BKN008
     FM281900 19009KT P6SM SCT015 BKN035
     FM282000 19010KT P6SM SCT035
     FM290000 18005KT P6SM FEW035
     FM290100 18005KT P6SM SCT250=

USA.gov is the U.S. government's official web portal to all federal, state and local government web resources and services.